Time;durP1;ratioP1;P1;durP2;ratioP2;P2;SDS_P1;SDS_P2;PMS_P1;PMS_P2;Temp;Humidity;BMP_temperature;BMP_pressure;BME280_temperature;BME280_humidity;BME280_pressure;Samples;Min_cycle;Max_cycle;Signal;HPM_P1;HPM_P2
2023/10/21 00:01:56;;;;;;;11.37;1.90;;;;;;;;;;5056134;28;20223;-88
2023/10/21 00:04:23;;;;;;;8.13;1.83;;;;;;;;;;5056488;28;20215;-89
2023/10/21 00:06:51;;;;;;;10.87;1.70;;;;;;;;;;5056151;28;20200;-89
2023/10/21 00:09:19;;;;;;;12.13;2.03;;;;;;;;;;5056143;28;20204;-89
2023/10/21 00:11:47;;;;;;;11.43;1.80;;;;;;;;;;5059648;28;20239;-89
2023/10/21 00:14:14;;;;;;;10.70;1.30;;;;;;;;;;5060285;28;20207;-89
2023/10/21 00:16:41;;;;;;;8.77;1.70;;;;;;;;;;5061910;28;20262;-89
2023/10/21 00:19:10;;;;;;;9.00;1.57;;;;;;;;;;5062400;28;20274;-89
2023/10/21 00:21:38;;;;;;;9.23;1.63;;;;;;;;;;5061747;28;20294;-88
2023/10/21 00:24:04;;;;;;;10.10;1.47;;;;;;;;;;5061843;28;20668;-89
2023/10/21 00:26:43;;;;;;;11.67;1.77;;;;;;;;;;5056206;28;20204;-89
2023/10/21 00:29:12;;;;;;;11.17;1.23;;;;;;;;;;5055529;28;20564;-90
2023/10/21 00:31:39;;;;;;;11.10;1.50;;;;;;;;;;5055349;28;20696;-89
2023/10/21 00:34:06;;;;;;;7.80;1.50;;;;;;;;;;5055505;28;20603;-88
2023/10/21 00:36:34;;;;;;;8.70;1.43;;;;;;;;;;5056096;28;20192;-90
2023/10/21 00:39:01;;;;;;;6.43;1.40;;;;;;;;;;5055646;28;20216;-90
2023/10/21 00:41:29;;;;;;;10.43;1.53;;;;;;;;;;5055545;28;20218;-89
2023/10/21 00:43:58;;;;;;;9.40;1.50;;;;;;;;;;5055319;28;20200;-89
2023/10/21 00:46:26;;;;;;;10.30;1.60;;;;;;;;;;5054902;28;20236;-89
2023/10/21 00:48:53;;;;;;;8.17;1.27;;;;;;;;;;5055706;28;20210;-88
2023/10/21 00:51:21;;;;;;;10.23;1.53;;;;;;;;;;5055809;28;20223;-89
2023/10/21 00:53:49;;;;;;;5.63;1.60;;;;;;;;;;5055776;28;20204;-89
2023/10/21 00:56:16;;;;;;;7.30;1.37;;;;;;;;;;5056330;28;20195;-89
2023/10/21 00:58:44;;;;;;;9.37;1.67;;;;;;;;;;5055519;28;20229;-89
2023/10/21 01:01:13;;;;;;;9.30;1.43;;;;;;;;;;5055025;28;20250;-89
2023/10/21 01:03:41;;;;;;;14.40;2.10;;;;;;;;;;5055545;28;20192;-89
2023/10/21 01:06:09;;;;;;;10.77;1.90;;;;;;;;;;5055355;28;20196;-89
2023/10/21 01:08:42;;;;;;;7.43;1.50;;;;;;;;;;5055241;28;20208;-89
2023/10/21 01:11:09;;;;;;;5.67;1.27;;;;;;;;;;5054933;28;20255;-89
2023/10/21 01:13:37;;;;;;;9.00;1.70;;;;;;;;;;5054611;28;20257;-90
2023/10/21 01:16:04;;;;;;;9.63;1.87;;;;;;;;;;5054820;28;20226;-89
2023/10/21 01:18:35;;;;;;;9.97;1.83;;;;;;;;;;5054566;28;20203;-89
2023/10/21 01:21:02;;;;;;;6.97;1.30;;;;;;;;;;5054467;28;20722;-89
2023/10/21 01:23:31;;;;;;;9.00;1.40;;;;;;;;;;5054493;28;20668;-89
2023/10/21 01:25:59;;;;;;;11.13;1.77;;;;;;;;;;5054490;28;20208;-89
2023/10/21 01:28:26;;;;;;;10.37;1.37;;;;;;;;;;5054462;28;20226;-88
2023/10/21 01:30:53;;;;;;;9.50;1.60;;;;;;;;;;5054134;28;20223;-88
2023/10/21 01:33:21;;;;;;;9.70;1.80;;;;;;;;;;5054720;28;20200;-89
2023/10/21 01:35:48;;;;;;;10.63;1.57;;;;;;;;;;5054459;28;20208;-88
2023/10/21 01:38:16;;;;;;;11.73;1.73;;;;;;;;;;5054320;28;20199;-89
2023/10/21 01:40:45;;;;;;;7.03;1.33;;;;;;;;;;5054176;28;20282;-90
2023/10/21 01:43:12;;;;;;;7.80;1.20;;;;;;;;;;5053792;28;20285;-89
2023/10/21 01:45:40;;;;;;;8.27;1.70;;;;;;;;;;5054145;28;20243;-89
2023/10/21 01:48:08;;;;;;;10.37;1.27;;;;;;;;;;5053660;28;20230;-88
2023/10/21 01:50:36;;;;;;;7.03;1.23;;;;;;;;;;5054329;28;20200;-89
2023/10/21 01:53:03;;;;;;;7.90;1.40;;;;;;;;;;5054403;28;20203;-89
2023/10/21 01:55:30;;;;;;;9.23;1.53;;;;;;;;;;5053757;28;20622;-90
2023/10/21 01:58:01;;;;;;;9.93;1.70;;;;;;;;;;5053726;28;20249;-89
2023/10/21 02:00:28;;;;;;;6.30;1.17;;;;;;;;;;5054216;28;20196;-89
2023/10/21 02:02:57;;;;;;;10.63;1.67;;;;;;;;;;5053761;28;20676;-89
2023/10/21 02:05:26;;;;;;;9.30;1.80;;;;;;;;;;5053821;28;20203;-89
2023/10/21 02:07:53;;;;;;;7.27;1.40;;;;;;;;;;5053703;28;20278;-90
2023/10/21 02:10:21;;;;;;;5.20;1.20;;;;;;;;;;5054391;28;20235;-88
2023/10/21 02:12:48;;;;;;;9.57;1.50;;;;;;;;;;5053437;28;20281;-89
2023/10/21 02:15:17;;;;;;;7.17;1.20;;;;;;;;;;5054192;28;20211;-89
2023/10/21 02:17:45;;;;;;;8.13;1.70;;;;;;;;;;5053968;28;20246;-89
2023/10/21 02:20:14;;;;;;;7.73;1.13;;;;;;;;;;5053760;28;20203;-90
2023/10/21 02:22:41;;;;;;;9.60;1.53;;;;;;;;;;5053651;28;20203;-88
2023/10/21 02:25:11;;;;;;;9.80;1.80;;;;;;;;;;5053772;28;20583;-89
2023/10/21 02:27:39;;;;;;;8.47;1.63;;;;;;;;;;5053989;28;20200;-89
2023/10/21 02:30:07;;;;;;;8.53;1.33;;;;;;;;;;5056348;28;20548;-88
2023/10/21 02:32:37;;;;;;;9.10;1.50;;;;;;;;;;5057015;28;20297;-88
2023/10/21 02:35:05;;;;;;;7.50;1.30;;;;;;;;;;5057226;28;20200;-89
2023/10/21 02:37:33;;;;;;;6.47;1.60;;;;;;;;;;5057120;28;20210;-90
2023/10/21 02:40:00;;;;;;;7.90;1.17;;;;;;;;;;5057098;28;20199;-89
2023/10/21 02:42:27;;;;;;;8.60;1.57;;;;;;;;;;5057201;28;20208;-88
2023/10/21 02:44:54;;;;;;;10.30;1.60;;;;;;;;;;5043584;28;20689;-90
2023/10/21 02:47:22;;;;;;;8.70;1.60;;;;;;;;;;5033395;28;20200;-88
2023/10/21 02:49:51;;;;;;;6.57;1.40;;;;;;;;;;5037025;28;20576;-88
2023/10/21 02:52:18;;;;;;;8.87;1.47;;;;;;;;;;5033093;28;20239;-86
2023/10/21 02:54:45;;;;;;;9.20;1.37;;;;;;;;;;5033442;28;20200;-88
2023/10/21 02:57:13;;;;;;;8.17;1.53;;;;;;;;;;5033534;28;20204;-88
2023/10/21 02:59:40;;;;;;;12.70;2.13;;;;;;;;;;5033541;28;20204;-88
2023/10/21 03:02:07;;;;;;;11.13;1.80;;;;;;;;;;5034245;28;20208;-87
2023/10/21 03:04:35;;;;;;;6.13;1.10;;;;;;;;;;5032506;28;20221;-88
2023/10/21 03:07:05;;;;;;;12.17;1.33;;;;;;;;;;5032381;28;20228;-89
2023/10/21 03:09:32;;;;;;;10.47;1.47;;;;;;;;;;5033898;28;20251;-89
2023/10/21 03:11:59;;;;;;;9.30;1.60;;;;;;;;;;5033627;28;20282;-88
2023/10/21 03:14:27;;;;;;;9.10;1.40;;;;;;;;;;5033069;28;20201;-88
2023/10/21 03:16:54;;;;;;;8.67;1.73;;;;;;;;;;5032985;28;20204;-88
2023/10/21 03:19:21;;;;;;;9.37;1.70;;;;;;;;;;5045330;28;20539;-88
2023/10/21 03:21:48;;;;;;;9.53;1.53;;;;;;;;;;5052697;28;20835;-88
2023/10/21 03:24:17;;;;;;;10.23;2.30;;;;;;;;;;5052797;28;20543;-88
2023/10/21 03:26:44;;;;;;;13.30;2.30;;;;;;;;;;5053207;28;20223;-89
2023/10/21 03:29:12;;;;;;;14.33;2.53;;;;;;;;;;5053192;28;20204;-88
2023/10/21 03:31:39;;;;;;;11.97;2.43;;;;;;;;;;5052519;28;20753;-89
2023/10/21 03:34:07;;;;;;;11.40;1.80;;;;;;;;;;5053271;28;20196;-88
2023/10/21 03:36:34;;;;;;;11.87;2.23;;;;;;;;;;5052534;28;20192;-89
2023/10/21 03:39:01;;;;;;;10.70;2.30;;;;;;;;;;5052304;28;20199;-88
2023/10/21 03:41:30;;;;;;;11.40;1.80;;;;;;;;;;5053325;28;20282;-89
2023/10/21 03:43:58;;;;;;;14.60;2.60;;;;;;;;;;5053456;28;20730;-89
2023/10/21 03:46:26;;;;;;;10.33;2.10;;;;;;;;;;5052376;28;20242;-89
2023/10/21 03:48:53;;;;;;;12.53;2.33;;;;;;;;;;5052990;28;20200;-89
2023/10/21 03:51:20;;;;;;;10.30;2.07;;;;;;;;;;5056790;28;20199;-89
2023/10/21 03:53:48;;;;;;;11.87;2.03;;;;;;;;;;5056262;28;20210;-89
2023/10/21 03:56:15;;;;;;;10.70;2.03;;;;;;;;;;5056489;28;20207;-88
2023/10/21 03:58:44;;;;;;;12.87;2.30;;;;;;;;;;5056560;28;20200;-89
2023/10/21 04:01:11;;;;;;;8.57;1.60;;;;;;;;;;5056439;28;20208;-89
2023/10/21 04:03:39;;;;;;;13.17;2.00;;;;;;;;;;5056147;28;20199;-89
2023/10/21 04:06:09;;;;;;;9.40;1.80;;;;;;;;;;5056292;28;20636;-89
2023/10/21 04:08:37;;;;;;;11.80;1.73;;;;;;;;;;5055639;28;20672;-89
2023/10/21 04:11:04;;;;;;;11.80;2.20;;;;;;;;;;5056088;28;20199;-90
2023/10/21 04:13:31;;;;;;;13.90;1.90;;;;;;;;;;5056175;28;20228;-90
2023/10/21 04:16:00;;;;;;;10.73;2.07;;;;;;;;;;5056168;28;20192;-90
2023/10/21 04:18:28;;;;;;;13.87;2.30;;;;;;;;;;5055975;28;20253;-90
2023/10/21 04:20:55;;;;;;;15.33;2.33;;;;;;;;;;5055764;28;20204;-90
2023/10/21 04:23:24;;;;;;;10.10;1.87;;;;;;;;;;5055773;28;20694;-90
2023/10/21 04:25:52;;;;;;;9.93;2.10;;;;;;;;;;5055978;28;20223;-89
2023/10/21 04:28:20;;;;;;;14.87;2.20;;;;;;;;;;5055576;28;20188;-90
2023/10/21 04:30:47;;;;;;;11.07;2.07;;;;;;;;;;5055669;28;20199;-89
2023/10/21 04:33:16;;;;;;;14.80;1.97;;;;;;;;;;5055705;28;20669;-89
2023/10/21 04:35:43;;;;;;;10.97;2.20;;;;;;;;;;5055593;28;20757;-90
2023/10/21 04:38:11;;;;;;;12.57;2.00;;;;;;;;;;5055902;28;20196;-90
2023/10/21 04:40:38;;;;;;;12.80;2.60;;;;;;;;;;5055838;28;20442;-90
2023/10/21 04:43:05;;;;;;;10.70;2.03;;;;;;;;;;5055723;28;20203;-90
2023/10/21 04:45:33;;;;;;;14.53;2.70;;;;;;;;;;5058111;28;20585;-90
2023/10/21 04:48:00;;;;;;;12.77;2.10;;;;;;;;;;5060828;28;20192;-88
2023/10/21 04:50:29;;;;;;;16.30;3.13;;;;;;;;;;5060920;28;20609;-90
2023/10/21 04:52:56;;;;;;;16.70;2.47;;;;;;;;;;5061536;28;20283;-90
2023/10/21 04:55:23;;;;;;;15.30;2.50;;;;;;;;;;5060918;28;20203;-89
2023/10/21 04:57:51;;;;;;;15.07;2.60;;;;;;;;;;5060199;28;20196;-90
2023/10/21 05:00:18;;;;;;;11.97;2.20;;;;;;;;;;5054820;28;20564;-90
2023/10/21 05:02:46;;;;;;;19.23;3.50;;;;;;;;;;5055350;28;20204;-87
2023/10/21 05:05:14;;;;;;;11.00;2.20;;;;;;;;;;5054462;28;20192;-89
2023/10/21 05:07:42;;;;;;;13.67;2.10;;;;;;;;;;5055237;28;20223;-87
2023/10/21 05:10:11;;;;;;;10.83;2.40;;;;;;;;;;5055410;28;20254;-88
2023/10/21 05:12:38;;;;;;;13.87;2.80;;;;;;;;;;5055023;28;20232;-89
2023/10/21 05:15:06;;;;;;;15.50;2.40;;;;;;;;;;5054488;28;20204;-87
2023/10/21 05:17:33;;;;;;;14.87;2.90;;;;;;;;;;5054532;28;20204;-88
2023/10/21 05:20:00;;;;;;;17.53;3.23;;;;;;;;;;5054396;28;20254;-89
2023/10/21 05:22:28;;;;;;;13.30;1.90;;;;;;;;;;5054446;28;20204;-87
2023/10/21 05:24:57;;;;;;;13.37;2.10;;;;;;;;;;5054354;28;20202;-89
2023/10/21 05:27:24;;;;;;;12.57;2.40;;;;;;;;;;5054224;28;20596;-88
2023/10/21 05:29:52;;;;;;;16.83;2.83;;;;;;;;;;5054584;28;20261;-88
2023/10/21 05:32:19;;;;;;;15.77;2.83;;;;;;;;;;5053852;28;20277;-88
2023/10/21 05:34:47;;;;;;;17.20;3.10;;;;;;;;;;5054354;28;20261;-89
2023/10/21 05:37:14;;;;;;;13.73;2.20;;;;;;;;;;5054058;28;20287;-89
2023/10/21 05:39:42;;;;;;;15.37;2.63;;;;;;;;;;5054063;28;20199;-88
2023/10/21 05:42:11;;;;;;;19.20;2.50;;;;;;;;;;5053860;28;20660;-88
2023/10/21 05:44:38;;;;;;;17.97;2.63;;;;;;;;;;5056459;28;20199;-89
2023/10/21 05:47:06;;;;;;;15.40;2.80;;;;;;;;;;5053997;28;20236;-89
2023/10/21 05:49:33;;;;;;;13.03;2.00;;;;;;;;;;5053715;28;20206;-87
2023/10/21 05:52:00;;;;;;;15.03;2.53;;;;;;;;;;5053656;28;20199;-87
2023/10/21 05:54:31;;;;;;;15.13;2.03;;;;;;;;;;5053694;28;20199;-87
2023/10/21 05:56:58;;;;;;;12.40;1.93;;;;;;;;;;5053353;28;20254;-87
2023/10/21 05:59:27;;;;;;;12.37;2.37;;;;;;;;;;5053418;28;20210;-88
2023/10/21 06:01:54;;;;;;;14.47;2.60;;;;;;;;;;5053553;28;20203;-87
2023/10/21 06:04:21;;;;;;;13.67;2.53;;;;;;;;;;5053169;28;20733;-88
2023/10/21 06:06:49;;;;;;;13.53;2.80;;;;;;;;;;5053620;28;20652;-88
2023/10/21 06:09:17;;;;;;;13.87;2.40;;;;;;;;;;5053312;28;20203;-87
2023/10/21 06:11:44;;;;;;;13.17;2.10;;;;;;;;;;5052852;28;20204;-88
2023/10/21 06:14:11;;;;;;;13.23;2.40;;;;;;;;;;5052849;28;20235;-86
2023/10/21 06:16:40;;;;;;;12.73;2.37;;;;;;;;;;5053114;28;20726;-88
2023/10/21 06:19:08;;;;;;;11.93;2.70;;;;;;;;;;5052699;28;20207;-86
2023/10/21 06:21:35;;;;;;;12.53;2.57;;;;;;;;;;5052481;28;20203;-88
2023/10/21 06:24:03;;;;;;;16.23;2.30;;;;;;;;;;5053370;28;20214;-88
2023/10/21 06:26:31;;;;;;;18.07;3.20;;;;;;;;;;5053731;28;20219;-88
2023/10/21 06:28:58;;;;;;;20.20;3.00;;;;;;;;;;5052704;28;20239;-88
2023/10/21 06:31:26;;;;;;;16.87;2.77;;;;;;;;;;5053266;28;20617;-88
2023/10/21 06:33:54;;;;;;;21.77;2.90;;;;;;;;;;5053186;28;20607;-90
2023/10/21 06:36:22;;;;;;;17.03;2.93;;;;;;;;;;5053490;28;20242;-87
2023/10/21 06:38:50;;;;;;;16.53;3.17;;;;;;;;;;5052670;28;20235;-87
2023/10/21 06:41:17;;;;;;;14.10;2.70;;;;;;;;;;5053141;28;20623;-90
2023/10/21 06:43:45;;;;;;;17.57;3.20;;;;;;;;;;5053597;28;20199;-88
2023/10/21 06:46:13;;;;;;;14.57;2.47;;;;;;;;;;5053059;28;20699;-90
2023/10/21 06:48:40;;;;;;;19.73;3.20;;;;;;;;;;5053850;28;20656;-89
2023/10/21 06:51:09;;;;;;;17.03;3.20;;;;;;;;;;5053517;28;20208;-90
2023/10/21 06:53:36;;;;;;;15.30;3.23;;;;;;;;;;5053301;28;20265;-91
2023/10/21 06:56:04;;;;;;;15.63;3.30;;;;;;;;;;5053350;28;20199;-89
2023/10/21 06:58:31;;;;;;;23.50;2.70;;;;;;;;;;5053513;28;20242;-90
2023/10/21 07:00:59;;;;;;;18.83;3.00;;;;;;;;;;5053478;28;20813;-89
2023/10/21 07:03:26;;;;;;;15.67;2.60;;;;;;;;;;5055396;28;20875;-90
2023/10/21 07:05:53;;;;;;;14.50;2.63;;;;;;;;;;5055163;28;20200;-88
2023/10/21 07:08:23;;;;;;;11.20;2.30;;;;;;;;;;5055171;28;20200;-90
2023/10/21 07:10:52;;;;;;;15.70;2.63;;;;;;;;;;5054615;28;20730;-89
2023/10/21 07:13:20;;;;;;;16.53;2.70;;;;;;;;;;5055171;28;20695;-88
2023/10/21 07:15:48;;;;;;;14.27;2.67;;;;;;;;;;5052671;28;20200;-88
2023/10/21 07:18:15;;;;;;;12.67;2.30;;;;;;;;;;5051974;28;20286;-89
2023/10/21 07:20:42;;;;;;;13.30;2.50;;;;;;;;;;5052662;28;20257;-89
2023/10/21 07:23:12;;;;;;;15.13;2.37;;;;;;;;;;5052262;28;20195;-87
2023/10/21 07:25:41;;;;;;;20.67;3.37;;;;;;;;;;5056340;28;20192;-89
2023/10/21 07:28:08;;;;;;;14.60;2.27;;;;;;;;;;5055787;28;20192;-90
2023/10/21 07:30:36;;;;;;;20.73;3.30;;;;;;;;;;5056639;28;20199;-90
2023/10/21 07:33:03;;;;;;;19.17;3.37;;;;;;;;;;5055284;28;20285;-88
2023/10/21 07:35:30;;;;;;;17.40;3.20;;;;;;;;;;5056892;28;20235;-90
2023/10/21 07:37:58;;;;;;;15.13;2.67;;;;;;;;;;5056335;28;20253;-90
2023/10/21 07:40:25;;;;;;;15.63;2.10;;;;;;;;;;5056395;28;20203;-87
2023/10/21 07:42:55;;;;;;;20.40;3.20;;;;;;;;;;5056710;28;20253;-91
2023/10/21 07:45:22;;;;;;;18.10;3.17;;;;;;;;;;5055835;28;20330;-90
2023/10/21 07:47:49;;;;;;;23.33;2.70;;;;;;;;;;5056677;28;20196;-91
2023/10/21 07:50:17;;;;;;;16.33;2.73;;;;;;;;;;5056527;28;20199;-90
2023/10/21 07:52:44;;;;;;;15.57;2.93;;;;;;;;;;5056394;28;20204;-89
2023/10/21 07:55:12;;;;;;;16.73;2.83;;;;;;;;;;5056573;28;20192;-91
2023/10/21 07:57:40;;;;;;;16.57;3.10;;;;;;;;;;5056071;28;20246;-89
2023/10/21 08:00:13;;;;;;;16.13;2.80;;;;;;;;;;5055900;28;20245;-90
2023/10/21 08:02:40;;;;;;;17.43;2.80;;;;;;;;;;5055886;28;20210;-90
2023/10/21 08:05:08;;;;;;;12.70;2.63;;;;;;;;;;5030486;28;20290;-89
2023/10/21 08:07:37;;;;;;;15.63;2.60;;;;;;;;;;5054111;28;20223;-90
2023/10/21 08:10:05;;;;;;;18.67;3.07;;;;;;;;;;5055504;28;20200;-89
2023/10/21 08:12:33;;;;;;;18.60;2.87;;;;;;;;;;5056030;28;20223;-89
2023/10/21 08:15:00;;;;;;;15.70;2.57;;;;;;;;;;5054725;28;20279;-89
2023/10/21 08:17:29;;;;;;;19.13;3.07;;;;;;;;;;5055416;28;20204;-90
2023/10/21 08:19:57;;;;;;;16.40;2.33;;;;;;;;;;5055861;28;20790;-92
2023/10/21 08:22:24;;;;;;;18.47;2.83;;;;;;;;;;5053232;28;20234;-89
2023/10/21 08:24:52;;;;;;;16.23;2.60;;;;;;;;;;5054882;28;20231;-92
2023/10/21 08:27:20;;;;;;;15.47;2.40;;;;;;;;;;5054527;28;20203;-91
2023/10/21 08:29:48;;;;;;;12.80;1.83;;;;;;;;;;5054655;28;20200;-90
2023/10/21 08:32:15;;;;;;;13.30;2.60;;;;;;;;;;5053900;28;20687;-89
2023/10/21 08:34:44;;;;;;;17.30;2.77;;;;;;;;;;5054947;28;20770;-92
2023/10/21 08:37:15;;;;;;;10.47;2.30;;;;;;;;;;5055905;28;20200;-91
2023/10/21 08:39:43;;;;;;;14.30;2.57;;;;;;;;;;5055108;28;20200;-89
2023/10/21 08:42:11;;;;;;;15.03;2.63;;;;;;;;;;5055060;28;20243;-89
2023/10/21 08:44:39;;;;;;;11.07;2.30;;;;;;;;;;5055649;28;20203;-90
2023/10/21 08:47:07;;;;;;;16.13;2.80;;;;;;;;;;5054357;28;20236;-90
2023/10/21 08:49:35;;;;;;;12.27;2.43;;;;;;;;;;5055526;28;20643;-91
2023/10/21 08:52:05;;;;;;;14.53;3.03;;;;;;;;;;5055852;28;20222;-89
2023/10/21 08:54:32;;;;;;;11.47;2.77;;;;;;;;;;5054970;28;20738;-90
2023/10/21 08:57:00;;;;;;;19.17;3.07;;;;;;;;;;5054417;28;20207;-89
2023/10/21 08:59:27;;;;;;;13.97;2.77;;;;;;;;;;5054480;28;20226;-89
2023/10/21 09:01:55;;;;;;;11.57;2.37;;;;;;;;;;5054303;28;20303;-89
2023/10/21 09:04:22;;;;;;;12.33;2.30;;;;;;;;;;5054251;28;20242;-86
2023/10/21 09:06:58;;;;;;;12.87;2.77;;;;;;;;;;5053971;28;20227;-87
2023/10/21 09:09:28;;;;;;;11.77;2.53;;;;;;;;;;5052945;28;20223;-87
2023/10/21 09:12:05;;;;;;;12.17;2.57;;;;;;;;;;5053188;28;20574;-85
2023/10/21 09:14:32;;;;;;;9.90;1.90;;;;;;;;;;5051903;28;20614;-87
2023/10/21 09:17:00;;;;;;;13.87;2.53;;;;;;;;;;5053437;28;20265;-86
2023/10/21 09:19:27;;;;;;;13.27;2.47;;;;;;;;;;5051539;28;20250;-87
2023/10/21 09:21:55;;;;;;;12.23;2.60;;;;;;;;;;5053457;28;20257;-87
2023/10/21 09:24:23;;;;;;;13.77;2.80;;;;;;;;;;5054248;28;20204;-87
2023/10/21 09:26:52;;;;;;;12.93;2.43;;;;;;;;;;5035033;28;20224;-89
2023/10/21 09:29:22;;;;;;;14.97;2.90;;;;;;;;;;5050730;28;20274;-88
2023/10/21 09:31:51;;;;;;;11.30;2.20;;;;;;;;;;5050994;28;20216;-87
2023/10/21 09:34:25;;;;;;;15.80;2.97;;;;;;;;;;5050931;28;20293;-86
2023/10/21 09:36:54;;;;;;;11.53;2.63;;;;;;;;;;5050222;28;20212;-89
2023/10/21 09:39:22;;;;;;;14.70;2.53;;;;;;;;;;5049390;28;20204;-87
2023/10/21 09:41:50;;;;;;;16.80;2.50;;;;;;;;;;5048618;28;20223;-88
2023/10/21 09:44:19;;;;;;;13.07;2.87;;;;;;;;;;5049715;28;20216;-88
2023/10/21 09:46:46;;;;;;;15.57;2.90;;;;;;;;;;5047982;28;20232;-88
2023/10/21 09:49:15;;;;;;;9.67;2.67;;;;;;;;;;5049270;28;20199;-88
2023/10/21 09:51:46;;;;;;;13.03;2.97;;;;;;;;;;5049127;28;20212;-88
2023/10/21 09:54:16;;;;;;;15.90;3.30;;;;;;;;;;5047307;28;20315;-89
2023/10/21 09:56:44;;;;;;;18.33;3.40;;;;;;;;;;5046136;28;20257;-89
2023/10/21 09:59:12;;;;;;;15.13;3.07;;;;;;;;;;5050790;28;20204;-89
2023/10/21 10:01:41;;;;;;;12.13;3.23;;;;;;;;;;5053450;28;20250;-90
2023/10/21 10:04:10;;;;;;;12.80;2.70;;;;;;;;;;5053638;28;20192;-88
2023/10/21 10:06:39;;;;;;;15.87;3.10;;;;;;;;;;5053127;28;20250;-89
2023/10/21 10:09:07;;;;;;;19.10;3.50;;;;;;;;;;5053289;28;20286;-91
2023/10/21 10:11:36;;;;;;;15.77;3.20;;;;;;;;;;5052652;28;20192;-88
2023/10/21 10:14:05;;;;;;;13.90;2.97;;;;;;;;;;5052068;28;20227;-87
2023/10/21 10:16:32;;;;;;;17.70;3.23;;;;;;;;;;5052692;28;20704;-89
2023/10/21 10:19:01;;;;;;;14.80;3.00;;;;;;;;;;5052135;28;20227;-89
2023/10/21 10:21:32;;;;;;;14.73;3.07;;;;;;;;;;5052659;28;20195;-90
2023/10/21 10:23:59;;;;;;;14.77;3.00;;;;;;;;;;5052142;28;20261;-89
2023/10/21 10:26:37;;;;;;;13.97;3.13;;;;;;;;;;5051886;28;20206;-89
2023/10/21 10:29:19;;;;;;;14.50;2.97;;;;;;;;;;5051581;28;20195;-87
2023/10/21 10:31:47;;;;;;;14.70;3.03;;;;;;;;;;5052167;28;20608;-88
2023/10/21 10:34:19;;;;;;;16.97;2.87;;;;;;;;;;5053331;28;20319;-89
2023/10/21 10:36:47;;;;;;;10.20;2.57;;;;;;;;;;5053008;28;20199;-90
2023/10/21 10:39:29;;;;;;;11.70;2.80;;;;;;;;;;5052940;28;20200;-88
2023/10/21 10:41:56;;;;;;;13.60;2.27;;;;;;;;;;5053038;28;20304;-90
2023/10/21 10:44:23;;;;;;;15.87;2.90;;;;;;;;;;5053902;28;20203;-89
2023/10/21 10:46:53;;;;;;;10.70;2.80;;;;;;;;;;5052842;28;20231;-88
2023/10/21 10:49:22;;;;;;;17.20;4.53;;;;;;;;;;5053425;28;20207;-90
2023/10/21 10:51:50;;;;;;;15.93;4.10;;;;;;;;;;5052944;28;20253;-90
2023/10/21 10:54:18;;;;;;;13.70;2.83;;;;;;;;;;5052390;28;20302;-90
2023/10/21 10:56:47;;;;;;;14.17;3.00;;;;;;;;;;5053084;28;20228;-90
2023/10/21 10:59:15;;;;;;;14.00;3.17;;;;;;;;;;5055801;28;20200;-89
2023/10/21 11:01:42;;;;;;;12.37;3.13;;;;;;;;;;5057640;28;20195;-89
2023/10/21 11:04:10;;;;;;;6.73;2.40;;;;;;;;;;5057488;28;20200;-89
2023/10/21 11:06:40;;;;;;;12.80;2.30;;;;;;;;;;5057080;28;20271;-91
2023/10/21 11:09:16;;;;;;;9.03;3.00;;;;;;;;;;5056764;28;20192;-93
2023/10/21 11:11:47;;;;;;;11.07;2.70;;;;;;;;;;5056603;28;20286;-89
2023/10/21 11:14:16;;;;;;;8.87;1.67;;;;;;;;;;5056975;28;20230;-90
2023/10/21 11:16:43;;;;;;;5.07;1.70;;;;;;;;;;5057147;28;20199;-91
2023/10/21 11:19:11;;;;;;;6.53;2.00;;;;;;;;;;5056599;28;20219;-91
2023/10/21 11:21:41;;;;;;;6.40;1.90;;;;;;;;;;5056747;28;20200;-91
2023/10/21 11:24:10;;;;;;;3.83;1.30;;;;;;;;;;5057157;28;20199;-92
2023/10/21 11:26:38;;;;;;;3.20;0.67;;;;;;;;;;5055732;28;20207;-91
2023/10/21 11:29:06;;;;;;;2.30;0.50;;;;;;;;;;5055071;28;20592;-91
2023/10/21 11:31:34;;;;;;;3.03;0.60;;;;;;;;;;5056396;28;20203;-91
2023/10/21 11:34:13;;;;;;;1.97;0.70;;;;;;;;;;5057065;28;20224;-92
2023/10/21 11:36:44;;;;;;;2.40;0.87;;;;;;;;;;5055847;28;20200;-90
2023/10/21 11:39:14;;;;;;;3.70;1.30;;;;;;;;;;5037202;28;20208;-90
2023/10/21 11:41:52;;;;;;;4.90;1.80;;;;;;;;;;5038268;28;20974;-90
2023/10/21 11:44:25;;;;;;;8.13;2.90;;;;;;;;;;5041099;28;20239;-89
2023/10/21 11:46:54;;;;;;;12.13;2.90;;;;;;;;;;5040705;28;20228;-90
2023/10/21 11:49:23;;;;;;;13.57;2.73;;;;;;;;;;5039747;28;20196;-91
2023/10/21 11:51:54;;;;;;;9.07;2.70;;;;;;;;;;5038737;28;20204;-90
2023/10/21 11:54:32;;;;;;;9.80;2.10;;;;;;;;;;5038671;28;20719;-91
2023/10/21 12:16:32;;;;;;;6.63;1.60;;;;;;;;;;4992882;28;20282;-91
2023/10/21 12:22:27;;;;;;;6.23;1.83;;;;;;;;;;4972414;28;20334;-90
2023/10/21 12:33:37;;;;;;;5.00;1.63;;;;;;;;;;4969396;28;20209;-91
2023/10/21 12:39:19;;;;;;;6.67;1.83;;;;;;;;;;4983274;28;20334;-90
2023/10/21 12:41:57;;;;;;;6.43;1.80;;;;;;;;;;5028886;28;20218;-91
2023/10/21 12:44:24;;;;;;;7.83;1.80;;;;;;;;;;5029921;28;20216;-91
2023/10/21 12:47:01;;;;;;;6.77;1.73;;;;;;;;;;5029611;28;20276;-92
2023/10/21 12:49:30;;;;;;;7.77;1.53;;;;;;;;;;5029678;28;20219;-90
2023/10/21 12:51:57;;;;;;;5.27;1.60;;;;;;;;;;5029956;28;20212;-93
2023/10/21 12:54:30;;;;;;;7.60;1.73;;;;;;;;;;5029278;28;20309;-90
2023/10/21 12:57:02;;;;;;;5.70;1.57;;;;;;;;;;5046542;28;20576;-91
2023/10/21 12:59:30;;;;;;;4.73;1.60;;;;;;;;;;5049039;28;20223;-91
2023/10/21 13:02:03;;;;;;;4.80;1.70;;;;;;;;;;5053492;28;20238;-90
2023/10/21 13:04:34;;;;;;;6.80;2.00;;;;;;;;;;5053032;28;20207;-91
2023/10/21 13:07:19;;;;;;;5.87;1.87;;;;;;;;;;5053304;28;20200;-91
2023/10/21 13:09:51;;;;;;;5.80;2.20;;;;;;;;;;5039496;28;20207;-91
2023/10/21 13:12:20;;;;;;;5.20;2.27;;;;;;;;;;5042181;28;20864;-90
2023/10/21 13:15:09;;;;;;;5.70;1.70;;;;;;;;;;5054374;28;20216;-89
2023/10/21 13:17:36;;;;;;;5.60;1.40;;;;;;;;;;5053936;28;20676;-89
2023/10/21 13:20:04;;;;;;;6.07;1.53;;;;;;;;;;5054109;28;20265;-88
2023/10/21 13:22:33;;;;;;;4.03;1.37;;;;;;;;;;5053022;28;20199;-89
2023/10/21 13:25:07;;;;;;;3.43;1.90;;;;;;;;;;5034903;28;20200;-89
2023/10/21 13:27:36;;;;;;;1.73;1.30;;;;;;;;;;5047275;28;20282;-89
2023/10/21 13:30:10;;;;;;;3.30;1.30;;;;;;;;;;5054024;28;20625;-89
2023/10/21 13:32:37;;;;;;;2.50;1.00;;;;;;;;;;5054275;28;20594;-90
2023/10/21 13:35:09;;;;;;;5.57;1.60;;;;;;;;;;5054435;28;21351;-90
2023/10/21 13:37:37;;;;;;;4.50;1.70;;;;;;;;;;5054014;28;20211;-89
2023/10/21 13:40:13;;;;;;;4.47;1.77;;;;;;;;;;5053705;28;20615;-89
2023/10/21 13:42:53;;;;;;;3.27;1.37;;;;;;;;;;5053879;28;20208;-92
2023/10/21 13:48:08;;;;;;;4.07;1.30;;;;;;;;;;5046485;28;20706;-90
2023/10/21 13:50:42;;;;;;;3.33;1.40;;;;;;;;;;5053890;28;20258;-89
2023/10/21 13:53:12;;;;;;;4.10;1.67;;;;;;;;;;5053077;28;20210;-88
2023/10/21 13:55:56;;;;;;;3.10;1.20;;;;;;;;;;5052906;28;20231;-90
2023/10/21 13:58:25;;;;;;;5.23;2.03;;;;;;;;;;5050092;28;20215;-90
2023/10/21 14:00:53;;;;;;;6.27;1.87;;;;;;;;;;5053254;28;20661;-86
2023/10/21 14:03:22;;;;;;;3.50;1.90;;;;;;;;;;5051865;28;20227;-86
2023/10/21 14:05:50;;;;;;;4.87;1.87;;;;;;;;;;5051861;28;20261;-84
2023/10/21 14:08:19;;;;;;;3.30;1.53;;;;;;;;;;5052016;28;20211;-85
2023/10/21 14:10:46;;;;;;;5.50;2.73;;;;;;;;;;5051444;28;20944;-85
2023/10/21 14:13:15;;;;;;;3.70;2.23;;;;;;;;;;5051929;28;20277;-85
2023/10/21 14:15:44;;;;;;;3.47;2.10;;;;;;;;;;5051110;28;20231;-86
2023/10/21 14:18:11;;;;;;;2.87;1.80;;;;;;;;;;5051914;28;20223;-86
2023/10/21 14:20:40;;;;;;;5.60;2.23;;;;;;;;;;5051494;28;20696;-86
2023/10/21 14:23:12;;;;;;;7.50;2.83;;;;;;;;;;5051792;28;20251;-87
2023/10/21 14:25:40;;;;;;;7.20;3.87;;;;;;;;;;5051930;28;20283;-85
2023/10/21 14:28:10;;;;;;;5.80;2.87;;;;;;;;;;5051920;28;20613;-85
2023/10/21 14:30:38;;;;;;;8.03;2.83;;;;;;;;;;5050951;28;20610;-86
2023/10/21 14:33:07;;;;;;;6.97;2.27;;;;;;;;;;5050480;28;20220;-85
2023/10/21 14:35:35;;;;;;;6.50;2.30;;;;;;;;;;5051252;28;20223;-86
2023/10/21 14:38:03;;;;;;;6.77;2.37;;;;;;;;;;5051633;28;20282;-85
2023/10/21 14:40:30;;;;;;;8.43;2.80;;;;;;;;;;5051467;28;20192;-85
2023/10/21 14:42:58;;;;;;;9.47;2.97;;;;;;;;;;5051232;28;20196;-87
2023/10/21 14:45:25;;;;;;;6.20;2.30;;;;;;;;;;5051289;28;20239;-87
2023/10/21 14:47:52;;;;;;;8.27;2.23;;;;;;;;;;5051580;28;20200;-85
2023/10/21 14:50:21;;;;;;;8.80;1.60;;;;;;;;;;5050531;28;20272;-83
2023/10/21 14:52:49;;;;;;;7.13;1.97;;;;;;;;;;5051216;28;20187;-85
2023/10/21 14:55:16;;;;;;;7.93;2.50;;;;;;;;;;5051167;28;20230;-85
2023/10/21 14:57:43;;;;;;;9.50;2.20;;;;;;;;;;5051003;28;20283;-85
2023/10/21 15:00:15;;;;;;;13.87;2.33;;;;;;;;;;5050490;28;20188;-85
2023/10/21 15:02:43;;;;;;;9.53;3.00;;;;;;;;;;5051524;28;20203;-85
2023/10/21 15:05:12;;;;;;;7.50;2.47;;;;;;;;;;5051448;28;20294;-89
2023/10/21 15:07:41;;;;;;;8.73;2.40;;;;;;;;;;5050293;28;20227;-89
2023/10/21 15:10:10;;;;;;;8.70;2.60;;;;;;;;;;5051774;28;20253;-88
2023/10/21 15:12:38;;;;;;;10.63;2.20;;;;;;;;;;5051891;28;20199;-88
2023/10/21 15:15:06;;;;;;;8.50;2.20;;;;;;;;;;5049735;28;20868;-87
2023/10/21 15:17:34;;;;;;;8.30;2.20;;;;;;;;;;5053437;28;20204;-89
2023/10/21 15:20:02;;;;;;;10.00;2.10;;;;;;;;;;5051567;28;20199;-86
2023/10/21 15:22:32;;;;;;;7.77;2.20;;;;;;;;;;5051232;28;20254;-85